createdAt,value
2023-05-15T00:00:44.290Z,7.57
2023-05-15T00:01:45.846Z,8.17
2023-05-15T00:02:47.402Z,8.10
2023-05-15T00:03:49.205Z,8.07
2023-05-15T00:04:51.100Z,9.20
2023-05-15T00:05:52.641Z,8.70
2023-05-15T00:06:54.113Z,7.50
2023-05-15T00:07:55.694Z,7.10
2023-05-15T00:08:57.420Z,7.07
2023-05-15T00:09:58.880Z,7.47
2023-05-15T00:11:02.139Z,7.87
2023-05-15T00:12:04.080Z,7.10
2023-05-15T00:13:05.679Z,12.33
2023-05-15T00:14:07.363Z,7.60
2023-05-15T00:15:09.051Z,7.73
2023-05-15T00:16:10.661Z,7.50
2023-05-15T00:17:12.681Z,8.83
2023-05-15T00:18:14.260Z,8.13
2023-05-15T00:19:16.696Z,8.17
2023-05-15T00:20:18.210Z,8.03
2023-05-15T00:21:19.939Z,8.63
2023-05-15T00:22:21.437Z,6.53
2023-05-15T00:23:23.011Z,7.80
2023-05-15T00:24:24.757Z,8.97
2023-05-15T00:25:26.911Z,6.73
2023-05-15T00:26:28.941Z,8.53
2023-05-15T00:27:30.390Z,7.37
2023-05-15T00:28:31.921Z,7.00
2023-05-15T00:29:33.504Z,7.20
2023-05-15T00:30:35.458Z,6.80
2023-05-15T00:31:37.151Z,6.67
2023-05-15T00:32:39.292Z,7.83
2023-05-15T00:33:40.867Z,6.80
2023-05-15T00:34:42.700Z,7.80
2023-05-15T00:35:44.366Z,7.70
2023-05-15T00:36:46.000Z,14.33
2023-05-15T00:37:47.569Z,6.67
2023-05-15T00:38:49.169Z,7.27
2023-05-15T00:39:51.391Z,8.10
2023-05-15T00:40:53.546Z,7.33
2023-05-15T00:41:55.564Z,9.60
2023-05-15T00:42:57.748Z,7.67
2023-05-15T00:44:00.695Z,12.43
2023-05-15T00:45:02.675Z,7.70
2023-05-15T00:46:04.545Z,6.87
2023-05-15T00:47:07.373Z,7.50
2023-05-15T00:48:11.954Z,7.10
2023-05-15T00:49:14.369Z,8.30
2023-05-15T00:50:15.982Z,7.10
2023-05-15T00:51:17.663Z,7.20
2023-05-15T00:52:20.293Z,7.70
2023-05-15T00:53:21.915Z,7.90
2023-05-15T00:54:24.632Z,7.90
2023-05-15T00:55:26.942Z,8.13
2023-05-15T00:56:30.793Z,9.50
2023-05-15T00:57:33.168Z,6.97
2023-05-15T00:58:34.770Z,7.17
2023-05-15T00:59:36.536Z,7.10
2023-05-15T01:00:38.197Z,7.10
2023-05-15T01:01:39.764Z,7.80
2023-05-15T01:02:41.306Z,9.23
2023-05-15T01:03:45.936Z,8.10
2023-05-15T01:04:47.514Z,8.20
2023-05-15T01:05:49.253Z,16.33
2023-05-15T01:06:53.608Z,8.57
2023-05-15T01:08:15.408Z,8.33
2023-05-15T01:09:17.377Z,8.93
2023-05-15T01:10:19.818Z,8.33
2023-05-15T01:11:21.663Z,8.37
2023-05-15T01:12:23.704Z,8.07
2023-05-15T01:13:25.429Z,8.20
2023-05-15T01:14:27.545Z,8.43
2023-05-15T01:15:29.020Z,8.67
2023-05-15T01:16:30.522Z,8.87
2023-05-15T01:17:32.397Z,8.47
2023-05-15T01:18:34.020Z,8.07
2023-05-15T01:19:36.694Z,8.63
2023-05-15T01:21:01.967Z,8.93
2023-05-15T01:22:19.079Z,8.00
2023-05-15T01:23:30.455Z,9.30
2023-05-15T01:24:42.926Z,8.33
2023-05-15T01:26:04.675Z,12.80
2023-05-15T01:27:13.307Z,7.80
2023-05-15T01:28:18.939Z,10.03
2023-05-15T01:29:26.121Z,8.43
2023-05-15T01:30:32.953Z,9.30
2023-05-15T01:31:35.321Z,8.38
2023-05-15T01:32:36.893Z,8.50
2023-05-15T01:33:40.930Z,8.90
2023-05-15T01:35:08.657Z,7.82
2023-05-15T01:36:14.660Z,8.60
2023-05-15T01:37:18.950Z,7.68
2023-05-15T01:38:39.821Z,9.23
2023-05-15T01:39:42.760Z,10.93
2023-05-15T01:40:45.748Z,9.40
2023-05-15T01:42:16.341Z,9.10
2023-05-15T01:43:18.944Z,8.50
2023-05-15T01:44:29.170Z,11.90
2023-05-15T01:45:31.470Z,9.50
2023-05-15T01:46:34.714Z,8.20
2023-05-15T01:47:41.960Z,8.55
2023-05-15T01:48:45.319Z,8.30
2023-05-15T01:49:47.939Z,8.52
2023-05-15T01:50:51.450Z,13.20
2023-05-15T01:51:59.578Z,8.43
2023-05-15T01:53:02.220Z,9.00
2023-05-15T01:54:04.309Z,9.10
2023-05-15T01:55:07.337Z,9.27
2023-05-15T01:56:09.884Z,9.13
2023-05-15T01:57:11.962Z,10.55
2023-05-15T01:58:14.301Z,9.52
2023-05-15T01:59:16.666Z,8.63
2023-05-15T02:00:18.757Z,9.75
2023-05-15T02:01:20.898Z,14.53
2023-05-15T02:02:23.711Z,9.10
2023-05-15T02:03:25.455Z,11.60
2023-05-15T02:04:27.876Z,9.57
2023-05-15T02:05:29.614Z,9.70
2023-05-15T02:06:31.677Z,8.27
2023-05-15T02:07:34.261Z,9.32
2023-05-15T02:08:36.704Z,8.93
2023-05-15T02:09:38.732Z,9.50
2023-05-15T02:10:40.645Z,8.07
2023-05-15T02:11:42.539Z,10.17
2023-05-15T02:12:44.316Z,9.53
2023-05-15T02:13:46.254Z,8.87
2023-05-15T02:14:49.024Z,9.43
2023-05-15T02:15:50.633Z,9.25
2023-05-15T02:16:52.706Z,10.05
2023-05-15T02:17:54.343Z,9.02
2023-05-15T02:18:56.482Z,12.05
2023-05-15T02:19:58.284Z,8.85
2023-05-15T02:21:03.079Z,8.93
2023-05-15T02:22:04.739Z,13.25
2023-05-15T02:23:06.413Z,9.57
2023-05-15T02:24:08.012Z,9.90
2023-05-15T02:25:09.684Z,10.07
2023-05-15T02:26:21.493Z,9.20
2023-05-15T02:27:37.900Z,8.52
2023-05-15T02:28:58.231Z,10.10
2023-05-15T02:30:02.730Z,8.68
2023-05-15T02:31:11.453Z,8.13
2023-05-15T02:32:31.894Z,9.60
2023-05-15T02:33:46.013Z,9.93
2023-05-15T02:34:59.757Z,10.27
2023-05-15T02:36:01.390Z,9.00
2023-05-15T02:37:04.672Z,10.60
2023-05-15T02:38:08.535Z,8.97
2023-05-15T02:39:11.718Z,9.43
2023-05-15T02:40:13.844Z,9.25
2023-05-15T02:41:16.470Z,9.98
2023-05-15T02:42:18.333Z,11.82
2023-05-15T02:43:20.325Z,8.80
2023-05-15T02:44:22.271Z,8.60
2023-05-15T02:45:24.299Z,6.23
2023-05-15T02:46:27.002Z,8.73
2023-05-15T02:47:29.153Z,9.03
2023-05-15T02:48:31.027Z,8.40
2023-05-15T02:49:32.735Z,8.70
2023-05-15T02:50:34.268Z,12.70
2023-05-15T02:51:35.760Z,8.40
2023-05-15T02:52:37.923Z,9.40
2023-05-15T02:53:40.669Z,8.07
2023-05-15T02:54:42.636Z,8.65
2023-05-15T02:55:44.281Z,9.52
2023-05-15T02:56:45.835Z,8.43
2023-05-15T02:57:47.579Z,10.77
2023-05-15T02:58:49.741Z,8.43
2023-05-15T02:59:51.240Z,8.50
2023-05-15T03:00:52.883Z,8.63
2023-05-15T03:01:54.442Z,9.37
2023-05-15T03:02:56.074Z,8.70
2023-05-15T03:03:57.597Z,8.47
2023-05-15T03:04:59.307Z,7.85
2023-05-15T03:06:03.618Z,8.80
2023-05-15T03:07:05.268Z,9.25
2023-05-15T03:08:06.879Z,8.27
2023-05-15T03:09:08.476Z,8.00
2023-05-15T03:10:10.143Z,8.48
2023-05-15T03:11:11.650Z,9.27
2023-05-15T03:12:13.346Z,9.05
2023-05-15T03:13:14.843Z,10.03
2023-05-15T03:14:16.448Z,12.77
2023-05-15T03:15:18.814Z,8.52
2023-05-15T03:16:20.515Z,8.70
2023-05-15T03:17:22.348Z,8.40
2023-05-15T03:18:24.071Z,8.10
2023-05-15T03:19:25.616Z,9.00
2023-05-15T03:20:27.786Z,9.18
2023-05-15T03:21:29.497Z,12.00
2023-05-15T03:22:31.652Z,8.30
2023-05-15T03:23:34.020Z,9.57
2023-05-15T03:24:36.847Z,10.50
2023-05-15T03:25:38.512Z,10.63
2023-05-15T03:26:42.434Z,8.27
2023-05-15T03:27:43.895Z,8.13
2023-05-15T03:28:45.523Z,8.70
2023-05-15T03:29:49.107Z,9.47
2023-05-15T03:30:50.917Z,9.00
2023-05-15T03:31:52.432Z,8.50
2023-05-15T03:32:54.111Z,7.47
2023-05-15T03:33:55.808Z,8.63
2023-05-15T03:34:57.403Z,8.17
2023-05-15T03:35:58.934Z,8.70
2023-05-15T03:37:00.530Z,8.37
2023-05-15T03:38:02.211Z,8.77
2023-05-15T03:39:04.966Z,9.30
2023-05-15T03:40:07.524Z,9.60
2023-05-15T03:41:09.104Z,9.00
2023-05-15T03:42:10.688Z,10.10
2023-05-15T03:43:12.247Z,9.85
2023-05-15T03:44:13.763Z,10.00
2023-05-15T03:45:16.820Z,9.00
2023-05-15T03:46:18.395Z,9.90
2023-05-15T03:47:20.044Z,14.00
2023-05-15T03:48:21.591Z,9.57
2023-05-15T03:49:23.134Z,9.02
2023-05-15T03:50:24.583Z,7.72
2023-05-15T03:51:26.195Z,8.38
2023-05-15T03:52:27.904Z,7.37
2023-05-15T03:53:29.831Z,7.43
2023-05-15T03:54:31.576Z,7.13
2023-05-15T03:55:33.251Z,7.75
2023-05-15T03:56:35.035Z,8.30
2023-05-15T03:57:36.591Z,10.27
2023-05-15T03:58:38.118Z,7.50
2023-05-15T03:59:39.707Z,12.23
2023-05-15T04:00:41.281Z,7.60
2023-05-15T04:01:59.358Z,7.83
2023-05-15T04:03:04.756Z,8.03
2023-05-15T04:04:06.290Z,8.00
2023-05-15T04:05:08.307Z,7.60
2023-05-15T04:06:09.926Z,10.03
2023-05-15T04:07:11.431Z,7.20
2023-05-15T04:08:12.868Z,7.72
2023-05-15T04:09:14.380Z,7.00
2023-05-15T04:10:15.915Z,6.85
2023-05-15T04:11:17.566Z,7.03
2023-05-15T04:12:19.128Z,7.80
2023-05-15T04:13:20.552Z,11.73
2023-05-15T04:14:22.181Z,9.40
2023-05-15T04:15:25.023Z,13.50
2023-05-15T04:16:26.763Z,5.77
2023-05-15T04:17:30.829Z,5.90
2023-05-15T04:18:32.602Z,8.13
2023-05-15T04:19:34.620Z,8.47
2023-05-15T04:20:36.276Z,11.07
2023-05-15T04:21:37.814Z,6.77
2023-05-15T04:22:40.853Z,7.13
2023-05-15T04:23:42.575Z,7.90
2023-05-15T04:24:44.248Z,8.02
2023-05-15T04:25:46.910Z,7.70
2023-05-15T04:26:48.743Z,6.57
2023-05-15T04:27:50.811Z,10.20
2023-05-15T04:29:02.855Z,7.90
2023-05-15T04:30:06.260Z,11.53
2023-05-15T04:31:07.759Z,8.23
2023-05-15T04:32:09.446Z,10.63
2023-05-15T04:33:11.285Z,8.53
2023-05-15T04:34:12.827Z,8.60
2023-05-15T04:35:15.399Z,12.27
2023-05-15T04:36:17.357Z,7.80
2023-05-15T04:37:19.027Z,7.33
2023-05-15T04:38:20.570Z,7.13
2023-05-15T04:39:22.122Z,9.07
2023-05-15T04:40:23.759Z,7.77
2023-05-15T04:41:25.562Z,7.20
2023-05-15T04:42:27.073Z,13.83
2023-05-15T04:43:28.903Z,10.23
2023-05-15T04:44:30.903Z,8.27
2023-05-15T04:45:32.730Z,7.33
2023-05-15T04:46:35.015Z,7.63
2023-05-15T04:47:37.035Z,8.90
2023-05-15T04:48:38.776Z,7.53
2023-05-15T04:49:41.846Z,9.00
2023-05-15T04:50:43.732Z,7.87
2023-05-15T04:51:45.305Z,7.30
2023-05-15T04:52:46.814Z,7.00
2023-05-15T04:53:48.748Z,7.70
2023-05-15T04:54:53.009Z,7.27
2023-05-15T04:55:54.699Z,6.83
2023-05-15T04:56:56.340Z,6.63
2023-05-15T04:57:57.968Z,7.30
2023-05-15T04:58:59.783Z,7.37
2023-05-15T05:00:01.466Z,7.20
2023-05-15T05:01:04.227Z,6.93
2023-05-15T05:02:06.265Z,7.10
2023-05-15T05:03:07.982Z,6.87
2023-05-15T05:04:10.071Z,7.03
2023-05-15T05:05:11.773Z,7.47
2023-05-15T05:06:13.357Z,6.67
2023-05-15T05:07:14.936Z,9.37
2023-05-15T05:08:16.503Z,7.53
2023-05-15T05:09:21.219Z,10.37
2023-05-15T05:10:22.836Z,7.03
2023-05-15T05:11:24.335Z,6.37
2023-05-15T05:12:27.312Z,6.23
2023-05-15T05:13:30.127Z,9.97
2023-05-15T05:14:31.870Z,6.43
2023-05-15T05:15:33.441Z,6.90
2023-05-15T05:16:35.206Z,7.17
2023-05-15T05:17:36.770Z,6.33
2023-05-15T05:18:38.477Z,6.60
2023-05-15T05:19:40.280Z,6.03
2023-05-15T05:20:41.798Z,8.70
2023-05-15T05:21:43.693Z,6.90
2023-05-15T05:22:45.513Z,7.37
2023-05-15T05:23:47.390Z,6.43
2023-05-15T05:24:48.999Z,9.00
2023-05-15T05:25:50.908Z,6.90
2023-05-15T05:26:52.394Z,6.20
2023-05-15T05:27:53.923Z,10.20
2023-05-15T05:28:55.453Z,6.37
2023-05-15T05:29:56.945Z,6.90
2023-05-15T05:30:58.508Z,6.00
2023-05-15T05:32:00.145Z,6.27
2023-05-15T05:33:02.035Z,7.90
2023-05-15T05:34:03.666Z,14.30
2023-05-15T05:35:05.959Z,7.03
2023-05-15T05:36:07.649Z,6.00
2023-05-15T05:37:09.185Z,6.10
2023-05-15T05:38:10.865Z,5.60
2023-05-15T05:39:12.442Z,5.33
2023-05-15T05:40:14.042Z,5.27
2023-05-15T05:41:15.576Z,6.10
2023-05-15T05:42:17.133Z,7.93
2023-05-15T05:43:18.942Z,5.00
2023-05-15T05:44:20.925Z,8.40
2023-05-15T05:45:22.457Z,5.30
2023-05-15T05:46:24.101Z,4.90
2023-05-15T05:47:25.668Z,5.80
2023-05-15T05:48:27.222Z,9.80
2023-05-15T05:49:28.800Z,4.70
2023-05-15T05:50:30.818Z,5.80
2023-05-15T05:51:32.547Z,5.00
2023-05-15T05:52:34.515Z,5.23
2023-05-15T05:53:37.592Z,5.10
2023-05-15T05:54:41.085Z,5.00
2023-05-15T05:55:43.013Z,5.60
2023-05-15T05:56:44.675Z,5.60
2023-05-15T05:57:46.277Z,4.60
2023-05-15T05:58:47.868Z,5.83
2023-05-15T05:59:49.834Z,7.27
2023-05-15T06:00:51.615Z,5.30
2023-05-15T06:01:53.527Z,5.73
2023-05-15T06:02:56.616Z,8.30
2023-05-15T06:03:58.655Z,5.43
2023-05-15T06:05:00.882Z,5.73
2023-05-15T06:06:02.970Z,5.60
2023-05-15T06:07:04.623Z,9.30
2023-05-15T06:08:06.681Z,5.50
2023-05-15T06:09:08.589Z,5.10
2023-05-15T06:10:10.529Z,6.10
2023-05-15T06:11:12.122Z,5.30
2023-05-15T06:12:14.109Z,4.63
2023-05-15T06:13:16.068Z,10.10
2023-05-15T06:14:19.354Z,4.30
2023-05-15T06:15:21.182Z,5.00
2023-05-15T06:16:22.692Z,6.10
2023-05-15T06:17:24.272Z,5.90
2023-05-15T06:18:25.951Z,8.63
2023-05-15T06:19:27.528Z,6.97
2023-05-15T06:20:29.471Z,9.47
2023-05-15T06:21:31.897Z,4.80
2023-05-15T06:22:33.579Z,5.13
2023-05-15T06:23:35.016Z,4.40
2023-05-15T06:24:36.471Z,5.47
2023-05-15T06:25:38.002Z,5.40
2023-05-15T06:26:39.461Z,4.27
2023-05-15T06:27:41.262Z,5.10
2023-05-15T06:28:42.850Z,6.63
2023-05-15T06:29:44.313Z,5.77
2023-05-15T06:30:46.021Z,5.57
2023-05-15T06:31:47.808Z,6.50
2023-05-15T06:32:49.434Z,7.23
2023-05-15T06:33:51.124Z,4.70
2023-05-15T06:34:52.733Z,5.90
2023-05-15T06:35:54.387Z,7.70
2023-05-15T06:36:55.876Z,4.53
2023-05-15T06:37:58.643Z,4.30
2023-05-15T06:39:00.342Z,4.50
2023-05-15T06:40:02.300Z,4.40
2023-05-15T06:41:04.061Z,4.60
2023-05-15T06:42:05.878Z,4.47
2023-05-15T06:43:07.530Z,4.50
2023-05-15T06:44:09.099Z,5.83
2023-05-15T06:45:10.972Z,3.67
2023-05-15T06:46:16.342Z,3.63
2023-05-15T06:47:17.917Z,3.73
2023-05-15T06:48:19.654Z,3.83
2023-05-15T06:49:21.540Z,3.93
2023-05-15T06:50:23.233Z,3.47
2023-05-15T06:51:24.785Z,3.30
2023-05-15T06:52:26.429Z,4.50
2023-05-15T06:53:29.234Z,3.73
2023-05-15T06:54:31.016Z,3.80
2023-05-15T06:55:34.624Z,3.77
2023-05-15T06:56:36.169Z,3.13
2023-05-15T06:57:37.734Z,3.27
2023-05-15T06:58:39.357Z,3.53
2023-05-15T06:59:41.391Z,6.47
2023-05-15T07:00:43.394Z,3.10
2023-05-15T07:01:45.426Z,3.40
2023-05-15T07:02:47.025Z,3.30
2023-05-15T07:03:48.950Z,3.17
2023-05-15T07:04:50.633Z,4.97
2023-05-15T07:05:53.562Z,3.33
2023-05-15T07:06:55.055Z,3.30
2023-05-15T07:07:57.145Z,2.93
2023-05-15T07:08:59.238Z,3.67
2023-05-15T07:10:00.838Z,2.63
2023-05-15T07:11:02.347Z,3.53
2023-05-15T07:12:04.165Z,5.53
2023-05-15T07:13:05.694Z,4.73
2023-05-15T07:14:07.545Z,2.97
2023-05-15T07:15:09.491Z,5.03
2023-05-15T07:16:11.674Z,3.17
2023-05-15T07:17:13.718Z,3.87
2023-05-15T07:18:15.425Z,4.23
2023-05-15T07:19:23.258Z,2.80
2023-05-15T07:20:27.284Z,3.03
2023-05-15T07:21:31.389Z,3.27
2023-05-15T07:22:38.513Z,2.83
2023-05-15T07:23:43.450Z,4.40
2023-05-15T07:24:45.086Z,4.23
2023-05-15T07:25:46.663Z,3.30
2023-05-15T07:26:58.186Z,4.73
2023-05-15T07:28:00.836Z,3.17
2023-05-15T07:29:02.287Z,3.60
2023-05-15T07:30:04.180Z,3.00
2023-05-15T07:31:06.036Z,6.10
2023-05-15T07:32:07.676Z,2.60
2023-05-15T07:33:09.413Z,2.53
2023-05-15T07:34:11.538Z,3.97
2023-05-15T07:35:13.164Z,2.53
2023-05-15T07:36:14.819Z,6.00
2023-05-15T07:37:17.019Z,2.30
2023-05-15T07:38:18.893Z,2.83
2023-05-15T07:39:20.516Z,2.57
2023-05-15T07:40:22.147Z,2.40
2023-05-15T07:41:23.672Z,2.77
2023-05-15T07:42:25.645Z,3.47
2023-05-15T07:43:27.370Z,2.40
2023-05-15T07:44:29.046Z,2.70
2023-05-15T07:45:30.666Z,4.10
2023-05-15T07:46:33.324Z,3.20
2023-05-15T07:47:36.054Z,2.60
2023-05-15T07:48:37.568Z,3.57
2023-05-15T07:49:39.203Z,2.70
2023-05-15T07:50:40.877Z,2.50
2023-05-15T07:51:42.867Z,1.90
2023-05-15T07:52:44.646Z,2.10
2023-05-15T07:53:46.377Z,2.67
2023-05-15T07:54:47.781Z,2.20
2023-05-15T07:55:49.299Z,2.17
2023-05-15T07:56:50.861Z,2.07
2023-05-15T07:57:54.112Z,4.50
2023-05-15T07:58:55.970Z,1.80
2023-05-15T07:59:58.160Z,2.23
2023-05-15T08:00:59.697Z,2.60
2023-05-15T08:02:01.786Z,2.10
2023-05-15T08:03:03.519Z,2.90
2023-05-15T08:04:07.533Z,1.97
2023-05-15T08:05:09.564Z,2.50
2023-05-15T08:06:11.380Z,2.60
2023-05-15T08:07:13.525Z,2.10
2023-05-15T08:08:15.355Z,2.87
2023-05-15T08:09:16.888Z,2.53
2023-05-15T08:10:18.430Z,2.43
2023-05-15T08:11:20.134Z,5.23
2023-05-15T08:12:22.233Z,4.90
2023-05-15T08:13:23.938Z,2.77
2023-05-15T08:14:25.474Z,2.30
2023-05-15T08:15:27.129Z,2.37
2023-05-15T08:16:29.254Z,4.07
2023-05-15T08:17:30.821Z,2.93
2023-05-15T08:18:33.226Z,2.40
2023-05-15T08:19:34.784Z,4.93
2023-05-15T08:20:37.626Z,2.07
2023-05-15T08:21:39.442Z,2.17
2023-05-15T08:22:41.147Z,2.10
2023-05-15T08:23:42.647Z,2.37
2023-05-15T08:24:44.954Z,2.40
2023-05-15T08:25:46.548Z,2.07
2023-05-15T08:26:48.072Z,1.90
2023-05-15T08:27:49.570Z,1.80
2023-05-15T08:28:51.004Z,2.17
2023-05-15T08:29:55.467Z,2.13
2023-05-15T08:30:57.149Z,3.43
2023-05-15T08:31:58.846Z,1.70
2023-05-15T08:33:00.900Z,2.30
2023-05-15T08:34:02.611Z,3.73
2023-05-15T08:35:05.169Z,2.50
2023-05-15T08:36:07.287Z,2.00
2023-05-15T08:37:09.063Z,1.67
2023-05-15T08:38:10.812Z,1.87
2023-05-15T08:39:13.028Z,2.30
2023-05-15T08:40:15.000Z,2.13
2023-05-15T08:41:40.067Z,3.13
2023-05-15T08:42:45.406Z,3.23
2023-05-15T08:43:47.792Z,2.30
2023-05-15T08:44:50.178Z,2.20
2023-05-15T08:45:52.636Z,1.40
2023-05-15T08:46:54.397Z,2.00
2023-05-15T08:47:58.237Z,2.00
2023-05-15T08:49:02.866Z,2.10
2023-05-15T08:50:10.225Z,2.33
2023-05-15T08:51:12.313Z,2.40
2023-05-15T08:52:13.915Z,1.80
2023-05-15T08:53:15.659Z,2.87
2023-05-15T08:54:18.406Z,4.00
2023-05-15T08:55:20.204Z,2.87
2023-05-15T08:56:21.920Z,1.90
2023-05-15T08:57:23.624Z,3.83
2023-05-15T08:58:26.189Z,3.90
2023-05-15T08:59:27.841Z,2.87
2023-05-15T09:00:30.410Z,2.33
2023-05-15T09:01:32.712Z,2.73
2023-05-15T09:02:35.179Z,3.43
2023-05-15T09:03:37.121Z,4.33
2023-05-15T09:04:38.755Z,2.17
2023-05-15T09:05:40.465Z,4.80
2023-05-15T09:06:43.688Z,2.30
2023-05-15T09:07:46.276Z,6.93
2023-05-15T09:08:48.382Z,2.90
2023-05-15T09:09:50.445Z,2.60
2023-05-15T09:10:53.562Z,2.30
2023-05-15T09:11:55.584Z,2.00
2023-05-15T09:12:57.990Z,3.37
2023-05-15T09:14:00.015Z,2.43
2023-05-15T09:15:12.248Z,2.20
2023-05-15T09:16:13.872Z,2.17
2023-05-15T09:17:15.584Z,2.97
2023-05-15T09:18:18.136Z,9.67
2023-05-15T09:19:21.230Z,3.93
2023-05-15T09:20:27.056Z,2.53
2023-05-15T09:21:29.861Z,2.10
2023-05-15T09:22:34.514Z,2.37
2023-05-15T09:23:36.163Z,2.43
2023-05-15T09:24:37.912Z,3.83
2023-05-15T09:25:40.595Z,2.50
2023-05-15T09:26:42.646Z,2.33
2023-05-15T09:27:44.201Z,4.53
2023-05-15T09:28:46.294Z,1.90
2023-05-15T09:29:47.822Z,6.23
2023-05-15T09:30:49.677Z,2.87
2023-05-15T09:31:51.975Z,2.27
2023-05-15T09:32:54.855Z,2.60
2023-05-15T09:34:01.490Z,2.10
2023-05-15T09:35:02.996Z,2.13
2023-05-15T09:36:05.391Z,2.10
2023-05-15T09:37:08.013Z,5.70
2023-05-15T09:38:10.631Z,6.50
2023-05-15T09:39:12.768Z,2.10
2023-05-15T09:40:14.815Z,6.83
2023-05-15T09:41:24.231Z,2.10
2023-05-15T09:42:26.158Z,3.40
2023-05-15T09:43:28.778Z,3.43
2023-05-15T09:44:30.471Z,2.70
2023-05-15T09:45:32.083Z,2.00
2023-05-15T09:46:35.093Z,5.43
2023-05-15T09:47:36.793Z,3.80
2023-05-15T09:48:38.470Z,1.80
2023-05-15T09:49:40.519Z,4.20
2023-05-15T09:50:42.603Z,2.60
2023-05-15T09:51:44.804Z,3.03
2023-05-15T09:52:46.728Z,4.93
2023-05-15T09:53:49.938Z,2.00
2023-05-15T09:54:51.866Z,2.03
2023-05-15T09:55:53.698Z,2.67
2023-05-15T09:56:55.654Z,1.90
2023-05-15T09:58:11.224Z,3.27
2023-05-15T09:59:17.795Z,2.27
2023-05-15T10:00:19.531Z,2.93
2023-05-15T10:01:23.267Z,2.10
2023-05-15T10:02:32.305Z,2.50
2023-05-15T10:03:35.777Z,2.03
2023-05-15T10:04:38.512Z,3.23
2023-05-15T10:05:43.501Z,5.53
2023-05-15T10:06:46.641Z,2.23
2023-05-15T10:07:54.186Z,2.95
2023-05-15T10:08:56.459Z,2.38
2023-05-15T10:09:58.533Z,12.68
2023-05-15T10:11:01.847Z,2.63
2023-05-15T10:12:04.318Z,2.35
2023-05-15T10:13:07.123Z,8.65
2023-05-15T10:14:10.944Z,3.47
2023-05-15T10:15:14.006Z,3.47
2023-05-15T10:16:15.857Z,3.42
2023-05-15T10:17:19.170Z,2.10
2023-05-15T10:18:25.440Z,3.23
2023-05-15T10:19:29.412Z,4.93
2023-05-15T10:20:34.345Z,2.20
2023-05-15T10:21:40.317Z,4.05
2023-05-15T10:22:44.191Z,2.88
2023-05-15T10:23:48.700Z,2.47
2023-05-15T10:24:53.336Z,2.27
2023-05-15T10:25:59.151Z,2.80
2023-05-15T10:27:01.613Z,2.07
2023-05-15T10:28:04.270Z,1.90
2023-05-15T10:29:21.506Z,2.83
2023-05-15T10:30:25.340Z,4.43
2023-05-15T10:31:29.600Z,2.20
2023-05-15T10:32:31.650Z,1.60
2023-05-15T10:33:36.064Z,2.10
2023-05-15T10:34:38.335Z,3.80
2023-05-15T10:35:41.207Z,2.67
2023-05-15T10:36:43.503Z,2.90
2023-05-15T10:37:46.116Z,2.55
2023-05-15T10:38:48.266Z,1.98
2023-05-15T10:39:51.669Z,2.35
2023-05-15T10:41:05.610Z,3.25
2023-05-15T10:42:16.956Z,7.90
2023-05-15T10:43:21.367Z,3.47
2023-05-15T10:44:23.597Z,2.87
2023-05-15T10:45:25.356Z,4.57
2023-05-15T10:46:27.842Z,8.70
2023-05-15T10:47:33.749Z,2.50
2023-05-15T10:48:36.889Z,4.63
2023-05-15T10:49:38.915Z,5.00
2023-05-15T10:50:40.546Z,4.33
2023-05-15T10:51:42.354Z,3.03
2023-05-15T10:52:44.059Z,2.37
2023-05-15T10:53:46.080Z,2.73
2023-05-15T10:54:47.875Z,4.70
2023-05-15T10:55:49.911Z,3.60
2023-05-15T10:56:52.421Z,2.37
2023-05-15T10:57:54.948Z,2.87
2023-05-15T10:58:57.381Z,2.30
2023-05-15T10:59:59.169Z,3.50
2023-05-15T11:01:00.748Z,2.80
2023-05-15T11:02:26.379Z,2.55
2023-05-15T11:03:47.891Z,3.30
2023-05-15T11:04:55.700Z,5.55
2023-05-15T11:06:12.877Z,4.80
2023-05-15T11:07:15.892Z,2.65
2023-05-15T11:08:21.708Z,2.90
2023-05-15T11:09:29.421Z,2.40
2023-05-15T11:10:30.852Z,2.00
2023-05-15T11:11:51.187Z,2.08
2023-05-15T11:12:56.754Z,5.97
2023-05-15T11:14:04.419Z,4.43
2023-05-15T11:15:12.349Z,1.90
2023-05-15T11:16:14.576Z,2.23
2023-05-15T11:17:17.620Z,4.53
2023-05-15T11:18:20.493Z,3.83
2023-05-15T11:19:32.589Z,1.90
2023-05-15T11:20:54.019Z,10.20
2023-05-15T11:22:04.340Z,2.30
2023-05-15T11:23:06.085Z,1.77
2023-05-15T11:24:11.636Z,2.20
2023-05-15T11:25:13.108Z,2.90
2023-05-15T11:26:15.018Z,2.60
2023-05-15T11:27:20.564Z,1.37
2023-05-15T11:28:23.023Z,2.20
2023-05-15T11:29:24.620Z,1.57
2023-05-15T11:30:36.518Z,2.13
2023-05-15T11:31:38.462Z,1.53
2023-05-15T11:32:59.209Z,1.40
2023-05-15T11:34:04.904Z,2.67
2023-05-15T11:35:09.725Z,1.73
2023-05-15T11:36:11.318Z,3.83
2023-05-15T11:37:19.416Z,2.50
2023-05-15T11:38:24.935Z,1.50
2023-05-15T11:39:27.169Z,2.70
2023-05-15T11:40:32.841Z,1.50
2023-05-15T11:41:34.597Z,2.77
2023-05-15T11:42:36.704Z,1.50
2023-05-15T11:43:38.254Z,1.37
2023-05-15T11:44:40.042Z,5.70
2023-05-15T11:45:41.865Z,1.27
2023-05-15T11:46:44.251Z,2.70
2023-05-15T11:47:46.032Z,1.77
2023-05-15T11:48:47.918Z,1.80
2023-05-15T11:49:49.876Z,1.83
2023-05-15T11:50:53.992Z,1.90
2023-05-15T11:51:56.001Z,1.60
2023-05-15T11:52:57.702Z,2.10
2023-05-15T11:54:00.579Z,8.70
2023-05-15T11:55:02.699Z,2.40
2023-05-15T11:56:04.533Z,3.87
2023-05-15T11:57:07.349Z,2.50
2023-05-15T11:58:18.895Z,2.00
2023-05-15T11:59:21.534Z,1.57
2023-05-15T12:00:23.141Z,1.50
2023-05-15T12:01:25.075Z,6.37
2023-05-15T12:02:27.777Z,3.60
2023-05-15T12:03:33.619Z,2.47
2023-05-15T12:04:35.937Z,4.13
2023-05-15T12:05:53.675Z,2.30
2023-05-15T12:07:03.006Z,1.40
2023-05-15T12:08:08.956Z,2.20
2023-05-15T12:09:15.017Z,5.37
2023-05-15T12:10:16.739Z,3.07
2023-05-15T12:11:22.076Z,1.60
2023-05-15T12:12:26.900Z,2.93
2023-05-15T12:13:28.626Z,2.63
2023-05-15T12:14:30.801Z,2.37
2023-05-15T12:15:32.301Z,1.53
2023-05-15T12:16:33.822Z,3.97
2023-05-15T12:17:37.075Z,1.87
2023-05-15T12:18:38.877Z,1.90
2023-05-15T12:19:41.403Z,4.80
2023-05-15T12:20:44.998Z,2.87
2023-05-15T12:21:46.768Z,2.60
2023-05-15T12:22:48.366Z,2.60
2023-05-15T12:24:03.548Z,2.40
2023-05-15T12:25:11.380Z,1.57
2023-05-15T12:26:13.375Z,1.67
2023-05-15T12:27:15.013Z,1.90
2023-05-15T12:28:16.786Z,6.13
2023-05-15T12:29:18.453Z,2.00
2023-05-15T12:30:20.384Z,3.43
2023-05-15T12:31:22.206Z,1.93
2023-05-15T12:32:24.062Z,2.00
2023-05-15T12:33:25.579Z,2.27
2023-05-15T12:34:27.328Z,1.40
2023-05-15T12:35:29.291Z,2.13
2023-05-15T12:36:31.235Z,1.43
2023-05-15T12:37:37.139Z,4.87
2023-05-15T12:38:39.318Z,1.60
2023-05-15T12:40:11.988Z,1.57
2023-05-15T12:41:14.081Z,5.40
2023-05-15T12:42:15.582Z,3.93
2023-05-15T12:43:17.154Z,1.70
2023-05-15T12:44:21.272Z,2.13
2023-05-15T12:45:23.478Z,2.00
2023-05-15T12:46:25.997Z,2.87
2023-05-15T12:47:28.109Z,1.47
2023-05-15T12:48:31.124Z,1.67
2023-05-15T12:49:38.267Z,1.37
2023-05-15T12:50:39.969Z,1.60
2023-05-15T12:51:44.909Z,1.47
2023-05-15T12:52:52.923Z,1.53
2023-05-15T12:53:55.210Z,1.90
2023-05-15T12:54:59.875Z,2.97
2023-05-15T12:56:01.804Z,1.63
2023-05-15T12:57:03.755Z,1.40
2023-05-15T12:58:10.134Z,2.70
2023-05-15T12:59:12.263Z,1.67
2023-05-15T13:00:14.445Z,1.30
2023-05-15T13:01:16.776Z,1.60
2023-05-15T13:03:21.907Z,1.20
2023-05-15T13:04:23.554Z,1.60
2023-05-15T13:05:28.533Z,5.20
2023-05-15T13:06:45.036Z,1.30
2023-05-15T13:07:47.649Z,1.50
2023-05-15T13:08:49.575Z,3.27
2023-05-15T13:10:11.430Z,1.20
2023-05-15T13:11:16.762Z,1.20
2023-05-15T13:12:21.212Z,1.30
2023-05-15T13:13:22.912Z,1.33
2023-05-15T13:14:29.218Z,1.20
2023-05-15T13:15:37.858Z,1.00
2023-05-15T13:16:42.829Z,1.33
2023-05-15T13:17:45.822Z,1.77
2023-05-15T13:18:47.641Z,1.30
2023-05-15T13:19:49.292Z,1.80
2023-05-15T13:20:53.839Z,1.20
2023-05-15T13:21:55.439Z,1.50
2023-05-15T13:22:57.070Z,1.00
2023-05-15T13:23:58.750Z,2.40
2023-05-15T13:25:00.425Z,1.17
2023-05-15T13:26:01.892Z,1.30
2023-05-15T13:27:03.768Z,3.33
2023-05-15T13:28:06.407Z,4.83
2023-05-15T13:29:08.160Z,3.83
2023-05-15T13:30:09.931Z,1.30
2023-05-15T13:31:11.810Z,0.93
2023-05-15T13:32:13.313Z,5.30
2023-05-15T13:33:14.875Z,1.40
2023-05-15T13:34:16.561Z,1.17
2023-05-15T13:35:18.295Z,1.20
2023-05-15T13:36:19.937Z,1.33
2023-05-15T13:37:21.543Z,0.90
2023-05-15T13:38:23.188Z,1.30
2023-05-15T13:39:24.643Z,1.37
2023-05-15T13:40:27.377Z,1.00
2023-05-15T13:41:29.172Z,1.10
2023-05-15T13:42:30.619Z,1.47
2023-05-15T13:43:32.147Z,2.40
2023-05-15T13:44:35.837Z,1.20
2023-05-15T13:45:38.281Z,1.37
2023-05-15T13:46:39.879Z,1.40
2023-05-15T13:47:41.867Z,1.80
2023-05-15T13:48:43.575Z,1.10
2023-05-15T13:49:45.639Z,1.20
2023-05-15T13:50:47.217Z,3.20
2023-05-15T13:51:48.912Z,1.57
2023-05-15T13:52:50.438Z,1.67
2023-05-15T13:53:52.090Z,1.27
2023-05-15T13:54:56.833Z,0.80
2023-05-15T13:55:58.444Z,1.13
2023-05-15T13:57:00.487Z,3.33
2023-05-15T13:58:02.004Z,1.00
2023-05-15T13:59:04.156Z,1.00
2023-05-15T14:00:12.402Z,2.40